Tiger — 9HA2271 — position and weather

sailwx.info

Track history (hours):
 
Tides and Currents Weather Stations Pressure Air Temp Water Temp Dewpoint Dewpoint Depression Visibility Wind Speed Wind Dir Waves Ship Positions

Tiger

Last reported at 2015-Jan-23 11:11 UTC. Time now 2015-Jan-26 16:32 UTC.
Position N 38°54' W 031°45'.

Length 232 m; draft 10.3 m.

Type: Cargo ship. MMSI: 248223000.

Date/timePositionNaut miles runAvg speedWind from/ knotsBaromVisibWave heightAir tempDewpointWater temp
2015-Jan-23 11:11N 38°54' W 031°45'1218.5
2015-Jan-23 10:34N 38°57' W 031°30'2418.5
2015-Jan-23 09:15N 39°02' W 031°00'1318.8
2015-Jan-23 08:33N 39°06' W 030°44'1918.9
2015-Jan-23 07:33N 39°11' W 030°20'1918.6
2015-Jan-23 06:33N 39°16' W 029°57'1918.5
2015-Jan-23 05:33N 39°21' W 029°34'  
2015-Jan-19 21:33N 50°28' W 001°20'1615.9
2015-Jan-19 20:34N 50°37' W 000°59'1110.9
2015-Jan-19 19:33N 50°46' W 001°10'1010.0
2015-Jan-19 18:33N 50°52' W 001°22'1 0.7
2015-Jan-19 16:24N 50°53' W 001°24'0 0.0
2015-Jan-19 15:30N 50°53' W 001°24'0 0.0
2015-Jan-19 14:18N 50°53' W 001°24'0 0.0
2015-Jan-19 13:24N 50°53' W 001°24'0 0.0
2015-Jan-19 11:30N 50°53' W 001°24'0 0.0
2015-Jan-19 10:06N 50°53' W 001°24'0 0.0
2015-Jan-19 09:30N 50°53' W 001°24'0 0.0
2015-Jan-19 08:24N 50°53' W 001°24'0 0.0
2015-Jan-19 07:30N 50°53' W 001°24'0 0.0
2015-Jan-19 06:30N 50°53' W 001°24'0 0.0
2015-Jan-19 05:30N 50°53' W 001°24'0 0.0
2015-Jan-19 04:30N 50°53' W 001°24'0 0.0
2015-Jan-19 03:24N 50°53' W 001°24'0 0.0
2015-Jan-19 02:24N 50°53' W 001°24'0 0.0
2015-Jan-19 01:09N 50°53' W 001°24'0 0.0
2015-Jan-19 00:30N 50°53' W 001°24'0 0.0
2015-Jan-18 23:24N 50°53' W 001°24'0 0.0
2015-Jan-18 22:24N 50°53' W 001°24'0 0.0
2015-Jan-18 21:30N 50°53' W 001°24'0 0.0
2015-Jan-18 20:30N 50°53' W 001°24'0 0.0
2015-Jan-18 19:30N 50°53' W 001°24'0 0.0
2015-Jan-18 18:30N 50°53' W 001°24'0 0.0
2015-Jan-18 13:30N 50°53' W 001°24'0 0.0
2015-Jan-18 11:24N 50°53' W 001°24'0 0.0
2015-Jan-18 10:33N 50°53' W 001°24'0 0.0
2015-Jan-18 09:30N 50°53' W 001°24'0 0.0
2015-Jan-18 08:30N 50°53' W 001°24'0 0.0
2015-Jan-18 07:30N 50°53' W 001°24'0 0.0
2015-Jan-18 06:33N 50°53' W 001°24'0 0.0
2015-Jan-18 05:33N 50°53' W 001°24'0 0.0
2015-Jan-18 04:27N 50°53' W 001°24'0 0.0
2015-Jan-18 03:33N 50°53' W 001°24'2 1.9
2015-Jan-18 02:33N 50°52' W 001°22'8 7.6
2015-Jan-18 01:34N 50°46' W 001°14'1312.7
2015-Jan-18 00:33N 50°40' W 000°56'8 7.7
2015-Jan-17 23:33N 50°36' W 000°46'1615.7
2015-Jan-17 22:34N 50°34' W 000°22'1514.8
2015-Jan-17 21:32N 50°33' E 000°02'1515.1
2015-Jan-17 20:33N 50°36' E 000°25'1514.7
2015-Jan-17 19:33N 50°43' E 000°45'1514.7
2015-Jan-17 18:30N 50°52' E 001°05'1414.9
2015-Jan-17 17:34N 51°01' E 001°22'1616.0
2015-Jan-17 16:34N 51°11' E 001°42'1615.9
2015-Jan-17 15:34N 51°24' E 001°56'1717.1
2015-Jan-17 14:33N 51°22' E 002°24'1514.8
2015-Jan-17 13:34N 51°22' E 002°47'1515.2
2015-Jan-17 12:34N 51°22' E 003°11'2 2.2
2015-Jan-17 11:34N 51°20' E 003°13'1 0.9
2015-Jan-17 10:32N 51°19' E 003°13'0 0.0
2015-Jan-17 09:32N 51°19' E 003°13'0 0.0
2015-Jan-17 08:32N 51°19' E 003°13'0 0.0
2015-Jan-17 07:32N 51°19' E 003°13'0 0.0
2015-Jan-17 06:32N 51°19' E 003°13'0 0.0
2015-Jan-17 05:32N 51°19' E 003°13'0 0.0
2015-Jan-17 04:32N 51°19' E 003°13'0 0.0
2015-Jan-17 03:32N 51°19' E 003°13'0 0.0
2015-Jan-17 02:32N 51°19' E 003°13'0 0.0
2015-Jan-17 01:32N 51°19' E 003°13'0 0.0
2015-Jan-17 00:29N 51°19' E 003°13'0 0.0
2015-Jan-16 23:32N 51°19' E 003°13'0 0.0
2015-Jan-16 22:32N 51°19' E 003°13'0 0.0
2015-Jan-16 21:32N 51°19' E 003°13'0 0.0
2015-Jan-16 20:32N 51°19' E 003°13'0 0.0
2015-Jan-16 19:29N 51°19' E 003°13'0 0.0
2015-Jan-16 18:32N 51°19' E 003°13'0 0.0
2015-Jan-16 17:32N 51°19' E 003°13'0 0.0
2015-Jan-16 16:32N 51°19' E 003°13'0 0.0
2015-Jan-16 15:32N 51°19' E 003°13'0 0.0
2015-Jan-16 14:32N 51°19' E 003°13'0 0.0
2015-Jan-16 13:32N 51°19' E 003°13'0 0.0
2015-Jan-16 12:32N 51°19' E 003°13'0 0.0
2015-Jan-16 11:32N 51°19' E 003°13'0 0.0
2015-Jan-16 10:32N 51°19' E 003°13'0 0.0
2015-Jan-16 09:32N 51°19' E 003°13'1 1.1
2015-Jan-16 08:33N 51°20' E 003°13'2 2.1
2015-Jan-16 07:33N 51°22' E 003°11'1514.9
2015-Jan-16 06:33N 51°26' E 002°48'5 4.9
2015-Jan-16 05:34N 51°29' E 002°42'8 8.2
2015-Jan-16 04:32N 51°37' E 002°43'9111.4
2015-Jan-15 20:33N 52°56' E 003°57'1514.9
2015-Jan-15 19:33N 53°05' E 004°16'3 2.8
2015-Jan-15 18:33N 53°07' E 004°20'0 0.1
2015-Jan-15 17:26N 53°07' E 004°20'0 0.1
2015-Jan-15 16:32N 53°07' E 004°19'0 0.2
2015-Jan-15 15:32N 53°07' E 004°20'0 0.1
2015-Jan-15 14:29N 53°07' E 004°19'0 0.0
2015-Jan-15 13:26N 53°07' E 004°19'0 0.1
2015-Jan-15 12:32N 53°07' E 004°19'0 0.0
2015-Jan-15 11:29N 53°07' E 004°19'0 0.1
2015-Jan-15 10:23N 53°07' E 004°19'0 0.0
2015-Jan-15 09:32N 53°07' E 004°19'0 0.0
2015-Jan-15 08:29N 53°07' E 004°19'0 0.2
2015-Jan-15 07:33N 53°07' E 004°19'0 0.4
2015-Jan-15 06:33N 53°06' E 004°19'1 0.5
2015-Jan-15 05:33N 53°06' E 004°19'0 0.2
2015-Jan-15 04:34N 53°06' E 004°19'0 0.2
2015-Jan-15 03:33N 53°06' E 004°19'1 0.7
2015-Jan-15 02:33N 53°05' E 004°19'3311.1
2015-Jan-14 23:33N 53°32' E 004°52'1616.0
2015-Jan-14 22:33N 53°36' E 005°18'1717.4
2015-Jan-14 21:33N 53°42' E 005°45'5618.5
2015-Jan-14 18:32N 53°57' E 007°17'1515.1
2015-Jan-14 17:32N 53°56' E 007°43'1313.4
2015-Jan-14 16:34N 53°51' E 008°03'1616.1
2015-Jan-14 15:33N 53°40' E 008°23'8 7.6
2015-Jan-14 14:29N 53°34' E 008°33'0 0.5
2015-Jan-14 13:32N 53°35' E 008°33'0 0.0
2015-Jan-14 12:32N 53°35' E 008°33'0 0.0
2015-Jan-14 11:32N 53°35' E 008°33'0 0.0
2015-Jan-14 10:32N 53°35' E 008°33'0 0.0
2015-Jan-14 09:32N 53°35' E 008°33'0 0.0
2015-Jan-14 08:32N 53°35' E 008°33'0 0.0
2015-Jan-14 07:32N 53°35' E 008°33'0 0.0
2015-Jan-14 06:32N 53°35' E 008°33'0 0.0
2015-Jan-14 05:29N 53°35' E 008°33'0 0.0
2015-Jan-14 04:32N 53°35' E 008°33'0 0.0
2015-Jan-14 03:32N 53°35' E 008°33'0 0.0
2015-Jan-14 02:32N 53°35' E 008°33'0 0.0
2015-Jan-14 01:32N 53°35' E 008°33'0 0.0
2015-Jan-14 00:32N 53°35' E 008°33'0 0.0
2015-Jan-13 23:32N 53°35' E 008°33'0 0.0
2015-Jan-13 22:32N 53°35' E 008°33'0 0.0
2015-Jan-13 21:32N 53°35' E 008°33'0 0.0
2015-Jan-13 20:32N 53°35' E 008°33'0 0.0
2015-Jan-13 19:32N 53°35' E 008°33'0 0.0
2015-Jan-13 18:32N 53°35' E 008°33'0 0.0
2015-Jan-13 17:32N 53°35' E 008°33'0 0.0
2015-Jan-13 16:32N 53°35' E 008°33'0 0.0
2015-Jan-13 15:32N 53°35' E 008°33'0 0.0
2015-Jan-13 14:32N 53°35' E 008°33'0 0.0
2015-Jan-13 13:34N 53°35' E 008°33'1 0.9
2015-Jan-13 12:33N 53°34' E 008°33'10 9.6
2015-Jan-13 11:33N 53°41' E 008°22'  
Track history (hours):
 
Tides and Currents Weather Stations Pressure Air Temp Water Temp Dewpoint Dewpoint Depression Visibility Wind Speed Wind Dir Waves Ship Positions

Tiger

Last reported at 2015-Jan-23 11:11 UTC. Time now 2015-Jan-26 16:32 UTC.
Position N 38°54' W 031°45'.

Length 232 m; draft 10.3 m.

Type: Cargo ship. MMSI: 248223000.

Date/timePositionNaut miles runAvg speedWind from/ knotsBaromVisibWave heightAir tempDewpointWater temp
2015-Jan-23 11:11N 38°54' W 031°45'1218.5
2015-Jan-23 10:34N 38°57' W 031°30'2418.5
2015-Jan-23 09:15N 39°02' W 031°00'1318.8
2015-Jan-23 08:33N 39°06' W 030°44'1918.9
2015-Jan-23 07:33N 39°11' W 030°20'1918.6
2015-Jan-23 06:33N 39°16' W 029°57'1918.5
2015-Jan-23 05:33N 39°21' W 029°34'  
2015-Jan-19 21:33N 50°28' W 001°20'1615.9
2015-Jan-19 20:34N 50°37' W 000°59'1110.9
2015-Jan-19 19:33N 50°46' W 001°10'1010.0
2015-Jan-19 18:33N 50°52' W 001°22'1 0.7
2015-Jan-19 16:24N 50°53' W 001°24'0 0.0
2015-Jan-19 15:30N 50°53' W 001°24'0 0.0
2015-Jan-19 14:18N 50°53' W 001°24'0 0.0
2015-Jan-19 13:24N 50°53' W 001°24'0 0.0
2015-Jan-19 11:30N 50°53' W 001°24'0 0.0
2015-Jan-19 10:06N 50°53' W 001°24'0 0.0
2015-Jan-19 09:30N 50°53' W 001°24'0 0.0
2015-Jan-19 08:24N 50°53' W 001°24'0 0.0
2015-Jan-19 07:30N 50°53' W 001°24'0 0.0
2015-Jan-19 06:30N 50°53' W 001°24'0 0.0
2015-Jan-19 05:30N 50°53' W 001°24'0 0.0
2015-Jan-19 04:30N 50°53' W 001°24'0 0.0
2015-Jan-19 03:24N 50°53' W 001°24'0 0.0
2015-Jan-19 02:24N 50°53' W 001°24'0 0.0
2015-Jan-19 01:09N 50°53' W 001°24'0 0.0
2015-Jan-19 00:30N 50°53' W 001°24'0 0.0
2015-Jan-18 23:24N 50°53' W 001°24'0 0.0
2015-Jan-18 22:24N 50°53' W 001°24'0 0.0
2015-Jan-18 21:30N 50°53' W 001°24'0 0.0
2015-Jan-18 20:30N 50°53' W 001°24'0 0.0
2015-Jan-18 19:30N 50°53' W 001°24'0 0.0
2015-Jan-18 18:30N 50°53' W 001°24'0 0.0
2015-Jan-18 13:30N 50°53' W 001°24'0 0.0
2015-Jan-18 11:24N 50°53' W 001°24'0 0.0
2015-Jan-18 10:33N 50°53' W 001°24'0 0.0
2015-Jan-18 09:30N 50°53' W 001°24'0 0.0
2015-Jan-18 08:30N 50°53' W 001°24'0 0.0
2015-Jan-18 07:30N 50°53' W 001°24'0 0.0
2015-Jan-18 06:33N 50°53' W 001°24'0 0.0
2015-Jan-18 05:33N 50°53' W 001°24'0 0.0
2015-Jan-18 04:27N 50°53' W 001°24'0 0.0
2015-Jan-18 03:33N 50°53' W 001°24'2 1.9
2015-Jan-18 02:33N 50°52' W 001°22'8 7.6
2015-Jan-18 01:34N 50°46' W 001°14'1312.7
2015-Jan-18 00:33N 50°40' W 000°56'8 7.7
2015-Jan-17 23:33N 50°36' W 000°46'1615.7
2015-Jan-17 22:34N 50°34' W 000°22'1514.8
2015-Jan-17 21:32N 50°33' E 000°02'1515.1
2015-Jan-17 20:33N 50°36' E 000°25'1514.7
2015-Jan-17 19:33N 50°43' E 000°45'1514.7
2015-Jan-17 18:30N 50°52' E 001°05'1414.9
2015-Jan-17 17:34N 51°01' E 001°22'1616.0
2015-Jan-17 16:34N 51°11' E 001°42'1615.9
2015-Jan-17 15:34N 51°24' E 001°56'1717.1
2015-Jan-17 14:33N 51°22' E 002°24'1514.8
2015-Jan-17 13:34N 51°22' E 002°47'1515.2
2015-Jan-17 12:34N 51°22' E 003°11'2 2.2
2015-Jan-17 11:34N 51°20' E 003°13'1 0.9
2015-Jan-17 10:32N 51°19' E 003°13'0 0.0
2015-Jan-17 09:32N 51°19' E 003°13'0 0.0
2015-Jan-17 08:32N 51°19' E 003°13'0 0.0
2015-Jan-17 07:32N 51°19' E 003°13'0 0.0
2015-Jan-17 06:32N 51°19' E 003°13'0 0.0
2015-Jan-17 05:32N 51°19' E 003°13'0 0.0
2015-Jan-17 04:32N 51°19' E 003°13'0 0.0
2015-Jan-17 03:32N 51°19' E 003°13'0 0.0
2015-Jan-17 02:32N 51°19' E 003°13'0 0.0
2015-Jan-17 01:32N 51°19' E 003°13'0 0.0
2015-Jan-17 00:29N 51°19' E 003°13'0 0.0
2015-Jan-16 23:32N 51°19' E 003°13'0 0.0
2015-Jan-16 22:32N 51°19' E 003°13'0 0.0
2015-Jan-16 21:32N 51°19' E 003°13'0 0.0
2015-Jan-16 20:32N 51°19' E 003°13'0 0.0
2015-Jan-16 19:29N 51°19' E 003°13'0 0.0
2015-Jan-16 18:32N 51°19' E 003°13'0 0.0
2015-Jan-16 17:32N 51°19' E 003°13'0 0.0
2015-Jan-16 16:32N 51°19' E 003°13'0 0.0
2015-Jan-16 15:32N 51°19' E 003°13'0 0.0
2015-Jan-16 14:32N 51°19' E 003°13'0 0.0
2015-Jan-16 13:32N 51°19' E 003°13'0 0.0
2015-Jan-16 12:32N 51°19' E 003°13'0 0.0
2015-Jan-16 11:32N 51°19' E 003°13'0 0.0
2015-Jan-16 10:32N 51°19' E 003°13'0 0.0
2015-Jan-16 09:32N 51°19' E 003°13'1 1.1
2015-Jan-16 08:33N 51°20' E 003°13'2 2.1
2015-Jan-16 07:33N 51°22' E 003°11'1514.9
2015-Jan-16 06:33N 51°26' E 002°48'5 4.9
2015-Jan-16 05:34N 51°29' E 002°42'8 8.2
2015-Jan-16 04:32N 51°37' E 002°43'9111.4
2015-Jan-15 20:33N 52°56' E 003°57'1514.9
2015-Jan-15 19:33N 53°05' E 004°16'3 2.8
2015-Jan-15 18:33N 53°07' E 004°20'0 0.1
2015-Jan-15 17:26N 53°07' E 004°20'0 0.1
2015-Jan-15 16:32N 53°07' E 004°19'0 0.2
2015-Jan-15 15:32N 53°07' E 004°20'0 0.1
2015-Jan-15 14:29N 53°07' E 004°19'0 0.0
2015-Jan-15 13:26N 53°07' E 004°19'0 0.1
2015-Jan-15 12:32N 53°07' E 004°19'0 0.0
2015-Jan-15 11:29N 53°07' E 004°19'0 0.1
2015-Jan-15 10:23N 53°07' E 004°19'0 0.0
2015-Jan-15 09:32N 53°07' E 004°19'0 0.0
2015-Jan-15 08:29N 53°07' E 004°19'0 0.2
2015-Jan-15 07:33N 53°07' E 004°19'0 0.4
2015-Jan-15 06:33N 53°06' E 004°19'1 0.5
2015-Jan-15 05:33N 53°06' E 004°19'0 0.2
2015-Jan-15 04:34N 53°06' E 004°19'0 0.2
2015-Jan-15 03:33N 53°06' E 004°19'1 0.7
2015-Jan-15 02:33N 53°05' E 004°19'3311.1
2015-Jan-14 23:33N 53°32' E 004°52'1616.0
2015-Jan-14 22:33N 53°36' E 005°18'1717.4
2015-Jan-14 21:33N 53°42' E 005°45'5618.5
2015-Jan-14 18:32N 53°57' E 007°17'1515.1
2015-Jan-14 17:32N 53°56' E 007°43'1313.4
2015-Jan-14 16:34N 53°51' E 008°03'1616.1
2015-Jan-14 15:33N 53°40' E 008°23'8 7.6
2015-Jan-14 14:29N 53°34' E 008°33'0 0.5
2015-Jan-14 13:32N 53°35' E 008°33'0 0.0
2015-Jan-14 12:32N 53°35' E 008°33'0 0.0
2015-Jan-14 11:32N 53°35' E 008°33'0 0.0
2015-Jan-14 10:32N 53°35' E 008°33'0 0.0
2015-Jan-14 09:32N 53°35' E 008°33'0 0.0
2015-Jan-14 08:32N 53°35' E 008°33'0 0.0
2015-Jan-14 07:32N 53°35' E 008°33'0 0.0
2015-Jan-14 06:32N 53°35' E 008°33'0 0.0
2015-Jan-14 05:29N 53°35' E 008°33'0 0.0
2015-Jan-14 04:32N 53°35' E 008°33'0 0.0
2015-Jan-14 03:32N 53°35' E 008°33'0 0.0
2015-Jan-14 02:32N 53°35' E 008°33'0 0.0
2015-Jan-14 01:32N 53°35' E 008°33'0 0.0
2015-Jan-14 00:32N 53°35' E 008°33'0 0.0
2015-Jan-13 23:32N 53°35' E 008°33'0 0.0
2015-Jan-13 22:32N 53°35' E 008°33'0 0.0
2015-Jan-13 21:32N 53°35' E 008°33'0 0.0
2015-Jan-13 20:32N 53°35' E 008°33'0 0.0
2015-Jan-13 19:32N 53°35' E 008°33'0 0.0
2015-Jan-13 18:32N 53°35' E 008°33'0 0.0
2015-Jan-13 17:32N 53°35' E 008°33'0 0.0
2015-Jan-13 16:32N 53°35' E 008°33'0 0.0
2015-Jan-13 15:32N 53°35' E 008°33'0 0.0
2015-Jan-13 14:32N 53°35' E 008°33'0 0.0
2015-Jan-13 13:34N 53°35' E 008°33'1 0.9
2015-Jan-13 12:33N 53°34' E 008°33'10 9.6
2015-Jan-13 11:33N 53°41' E 008°22'  

Dump ship's entire track history